createdAt,value
2018-06-20T00:01:16.718Z,68.03
2018-06-20T00:03:45.519Z,67.70
2018-06-20T00:06:14.144Z,67.04
2018-06-20T00:08:50.762Z,67.23
2018-06-20T00:11:20.428Z,66.90
2018-06-20T00:13:49.080Z,66.50
2018-06-20T00:16:17.727Z,66.44
2018-06-20T00:18:46.427Z,66.01
2018-06-20T00:21:15.185Z,65.24
2018-06-20T00:23:43.883Z,65.53
2018-06-20T00:26:12.568Z,65.99
2018-06-20T00:28:41.355Z,65.80
2018-06-20T00:31:10.104Z,66.39
2018-06-20T00:33:38.822Z,66.11
2018-06-20T00:36:07.466Z,66.55
2018-06-20T00:38:36.062Z,66.53
2018-06-20T00:41:04.716Z,67.23
2018-06-20T00:43:33.374Z,68.04
2018-06-20T00:46:02.058Z,67.40
2018-06-20T00:48:30.698Z,67.14
2018-06-20T00:50:59.338Z,67.60
2018-06-20T00:53:28.020Z,67.77
2018-06-20T00:56:07.960Z,67.37
2018-06-20T00:58:36.604Z,68.35
2018-06-20T01:01:05.411Z,68.36
2018-06-20T01:03:34.060Z,67.66
2018-06-20T01:06:02.710Z,67.64
2018-06-20T01:08:31.496Z,68.00
2018-06-20T01:11:00.157Z,67.45
2018-06-20T01:13:28.754Z,69.96
2018-06-20T01:15:57.499Z,69.84
2018-06-20T01:18:26.265Z,69.35
2018-06-20T01:20:54.955Z,68.78
2018-06-20T01:23:23.747Z,70.69
2018-06-20T01:25:52.415Z,71.52
2018-06-20T01:28:22.146Z,70.69
2018-06-20T01:30:52.317Z,69.76
2018-06-20T01:33:21.856Z,69.81
2018-06-20T01:35:50.677Z,69.60
2018-06-20T01:38:19.349Z,69.00
2018-06-20T01:40:48.010Z,70.03
2018-06-20T01:43:16.691Z,69.63
2018-06-20T01:45:46.214Z,69.11
2018-06-20T01:48:14.886Z,69.09
2018-06-20T01:50:43.538Z,69.21
2018-06-20T01:53:12.209Z,69.22
2018-06-20T01:55:40.861Z,69.96
2018-06-20T01:58:09.539Z,69.36
2018-06-20T02:00:38.192Z,69.16
2018-06-20T02:03:06.917Z,69.05
2018-06-20T02:05:35.563Z,71.09
2018-06-20T02:08:04.235Z,69.81
2018-06-20T02:10:32.878Z,71.22
2018-06-20T02:13:01.517Z,71.56
2018-06-20T02:15:30.171Z,72.01
2018-06-20T02:17:58.821Z,73.30
2018-06-20T02:20:27.481Z,72.77
2018-06-20T02:22:56.132Z,73.07
2018-06-20T02:25:24.747Z,74.35
2018-06-20T02:27:53.394Z,73.37
2018-06-20T02:30:22.086Z,73.47
2018-06-20T02:32:50.755Z,74.61
2018-06-20T02:35:19.480Z,74.51
2018-06-20T02:37:48.116Z,74.45
2018-06-20T02:40:16.742Z,74.75
2018-06-20T02:42:45.421Z,75.32
2018-06-20T02:45:14.082Z,75.21
2018-06-20T02:47:43.923Z,75.93
2018-06-20T02:50:13.947Z,76.20
2018-06-20T02:52:42.877Z,76.26
2018-06-20T02:55:11.659Z,76.71
2018-06-20T02:57:40.483Z,77.20
2018-06-20T03:00:09.157Z,77.05
2018-06-20T03:02:37.794Z,76.86
2018-06-20T03:05:06.499Z,77.29
2018-06-20T03:07:35.174Z,77.19
2018-06-20T03:10:03.893Z,77.81
2018-06-20T03:12:32.547Z,77.49
2018-06-20T03:15:01.260Z,77.66
2018-06-20T03:17:29.907Z,78.07
2018-06-20T03:19:58.560Z,77.88
2018-06-20T03:22:27.231Z,77.72
2018-06-20T03:24:55.954Z,78.22
2018-06-20T03:27:24.731Z,77.36
2018-06-20T03:29:53.433Z,77.53
2018-06-20T03:32:23.142Z,76.83
2018-06-20T03:34:51.793Z,76.83
2018-06-20T03:37:20.480Z,76.53
2018-06-20T03:39:49.159Z,76.66
2018-06-20T03:42:17.795Z,76.38
2018-06-20T03:44:46.495Z,76.46
2018-06-20T03:47:15.137Z,76.65
2018-06-20T03:49:43.874Z,76.61
2018-06-20T03:52:12.542Z,75.09
2018-06-20T03:54:41.209Z,75.77
2018-06-20T03:57:09.849Z,75.97
2018-06-20T03:59:38.477Z,75.40
2018-06-20T04:02:07.082Z,74.88
2018-06-20T04:04:35.702Z,74.48
2018-06-20T04:07:04.358Z,74.52
2018-06-20T04:09:32.990Z,74.30
2018-06-20T04:12:01.686Z,74.54
2018-06-20T04:14:30.415Z,74.45
2018-06-20T04:16:59.125Z,74.43
2018-06-20T04:19:27.782Z,74.20
2018-06-20T04:21:56.426Z,74.18
2018-06-20T04:24:25.108Z,73.94
2018-06-20T04:26:53.803Z,73.71
2018-06-20T04:29:22.521Z,73.76
2018-06-20T04:31:51.168Z,73.62
2018-06-20T04:34:19.859Z,74.10
2018-06-20T04:36:48.503Z,73.89
2018-06-20T04:39:17.182Z,73.98
2018-06-20T04:41:45.819Z,73.63
2018-06-20T04:44:14.541Z,73.58
2018-06-20T04:46:43.187Z,72.25
2018-06-20T04:49:11.831Z,73.29
2018-06-20T04:51:40.462Z,73.00
2018-06-20T04:54:09.154Z,72.94
2018-06-20T04:56:38.955Z,72.42
2018-06-20T04:59:07.646Z,72.29
2018-06-20T05:01:36.287Z,71.73
2018-06-20T05:04:05.011Z,71.00
2018-06-20T05:06:33.623Z,70.99
2018-06-20T05:09:04.347Z,71.15
2018-06-20T05:11:33.024Z,70.36
2018-06-20T05:14:01.655Z,70.68
2018-06-20T05:16:30.291Z,69.18
2018-06-20T05:18:58.983Z,69.05
2018-06-20T05:21:27.662Z,69.30
2018-06-20T05:23:56.471Z,68.86
2018-06-20T05:26:25.126Z,68.58
2018-06-20T05:28:53.801Z,68.07
2018-06-20T05:31:22.535Z,68.24
2018-06-20T05:33:51.143Z,67.62
2018-06-20T05:36:19.817Z,67.22
2018-06-20T05:38:48.591Z,66.90
2018-06-20T05:41:17.321Z,66.74
2018-06-20T05:43:45.964Z,67.14
2018-06-20T05:46:14.601Z,67.45
2018-06-20T05:48:43.244Z,66.92
2018-06-20T05:51:11.919Z,67.53
2018-06-20T05:53:40.920Z,67.61
2018-06-20T05:56:09.560Z,67.03
2018-06-20T05:58:38.194Z,67.14
2018-06-20T06:01:06.875Z,66.19
2018-06-20T06:03:35.542Z,66.22
2018-06-20T06:06:15.560Z,65.84
2018-06-20T06:08:44.791Z,65.29
2018-06-20T06:11:13.434Z,65.72
2018-06-20T06:13:42.055Z,65.64
2018-06-20T06:16:10.838Z,65.73
2018-06-20T06:18:39.518Z,64.76
2018-06-20T06:21:08.146Z,64.54
2018-06-20T06:23:36.811Z,64.13
2018-06-20T06:26:05.495Z,63.55
2018-06-20T06:28:34.142Z,62.79
2018-06-20T06:31:02.805Z,62.41
2018-06-20T06:33:31.469Z,61.98
2018-06-20T06:36:00.115Z,62.54
2018-06-20T06:38:28.878Z,62.34
2018-06-20T06:40:57.541Z,62.66
2018-06-20T06:43:26.200Z,62.24
2018-06-20T06:45:54.863Z,62.09
2018-06-20T06:48:23.546Z,61.74
2018-06-20T06:50:52.666Z,61.39
2018-06-20T06:53:21.305Z,61.43
2018-06-20T06:58:17.744Z,60.43
2018-06-20T07:00:46.407Z,60.49
2018-06-20T07:03:15.055Z,59.85
2018-06-20T07:05:43.665Z,59.84
2018-06-20T07:08:12.366Z,59.36
2018-06-20T07:10:41.353Z,60.39
2018-06-20T07:13:10.009Z,59.43
2018-06-20T07:15:38.682Z,59.79
2018-06-20T07:18:07.350Z,60.71
2018-06-20T07:20:36.001Z,61.13
2018-06-20T07:23:04.711Z,59.28
2018-06-20T07:25:33.975Z,59.36
2018-06-20T07:28:02.620Z,59.73
2018-06-20T07:30:31.310Z,59.79
2018-06-20T07:32:59.982Z,58.99
2018-06-20T07:35:28.711Z,58.18
2018-06-20T07:37:57.401Z,58.31
2018-06-20T07:40:26.028Z,57.62
2018-06-20T07:42:54.674Z,57.47
2018-06-20T07:45:23.347Z,57.46
2018-06-20T07:47:52.010Z,57.94
2018-06-20T07:50:20.683Z,57.65
2018-06-20T07:52:49.334Z,56.14
2018-06-20T07:55:18.088Z,56.44
2018-06-20T07:57:46.740Z,55.39
2018-06-20T08:00:20.575Z,54.60
2018-06-20T08:03:05.619Z,54.10
2018-06-20T08:05:39.416Z,55.49
2018-06-20T08:08:13.564Z,55.06
2018-06-20T08:10:47.272Z,54.34
2018-06-20T08:13:21.183Z,54.32
2018-06-20T08:15:54.893Z,54.20
2018-06-20T08:18:28.747Z,55.00
2018-06-20T08:20:57.484Z,55.12
2018-06-20T08:23:26.295Z,53.72
2018-06-20T08:25:54.943Z,53.08
2018-06-20T08:28:23.611Z,53.56
2018-06-20T08:30:52.279Z,51.87
2018-06-20T08:33:20.970Z,50.93
2018-06-20T08:35:49.657Z,50.07
2018-06-20T08:38:18.352Z,51.33
2018-06-20T08:40:47.201Z,51.17
2018-06-20T08:43:15.826Z,50.74
2018-06-20T08:45:44.571Z,49.15
2018-06-20T08:48:13.182Z,48.83
2018-06-20T08:50:41.881Z,48.68
2018-06-20T08:53:10.591Z,49.40
2018-06-20T08:55:39.198Z,48.77
2018-06-20T08:58:07.892Z,48.53
2018-06-20T09:00:41.820Z,47.38
2018-06-20T09:03:10.570Z,47.95
2018-06-20T09:05:44.311Z,48.58
2018-06-20T09:08:18.170Z,48.07
2018-06-20T09:11:53.358Z,47.28
2018-06-20T09:14:21.983Z,46.68
2018-06-20T09:16:55.653Z,45.22
2018-06-20T09:19:29.384Z,46.76
2018-06-20T09:21:58.023Z,44.88
2018-06-20T09:24:26.945Z,46.61
2018-06-20T09:26:55.640Z,45.38
2018-06-20T09:29:24.280Z,45.42
2018-06-20T09:31:52.918Z,44.51
2018-06-20T09:34:21.537Z,44.07
2018-06-20T09:36:50.145Z,44.85
2018-06-20T09:39:18.918Z,45.62
2018-06-20T09:41:47.568Z,45.86
2018-06-20T09:44:16.236Z,44.74
2018-06-20T09:46:59.432Z,44.20
2018-06-20T09:49:28.019Z,42.04
2018-06-20T09:51:57.236Z,43.07
2018-06-20T09:54:25.938Z,42.90
2018-06-20T09:56:54.591Z,42.54
2018-06-20T09:59:28.502Z,42.87
2018-06-20T10:02:02.311Z,42.19
2018-06-20T10:04:36.145Z,42.16
2018-06-20T10:07:09.931Z,41.96
2018-06-20T10:09:43.848Z,40.77
2018-06-20T10:12:17.495Z,39.69
2018-06-20T10:14:46.199Z,40.35
2018-06-20T10:17:14.831Z,42.18
2018-06-20T10:19:43.444Z,39.24
2018-06-20T10:22:12.070Z,41.61
2018-06-20T10:24:40.724Z,40.91
2018-06-20T10:27:09.378Z,40.52
2018-06-20T10:29:38.124Z,41.20
2018-06-20T10:32:06.734Z,39.59
2018-06-20T10:34:35.360Z,39.51
2018-06-20T10:37:04.108Z,39.97
2018-06-20T10:39:32.790Z,39.25
2018-06-20T10:42:01.453Z,39.42
2018-06-20T10:44:30.099Z,37.78
2018-06-20T10:47:03.899Z,38.45
2018-06-20T10:49:32.628Z,39.77
2018-06-20T10:52:01.294Z,40.60
2018-06-20T10:54:29.974Z,37.46
2018-06-20T10:57:03.788Z,37.68
2018-06-20T10:59:37.617Z,37.63
2018-06-20T11:02:11.428Z,38.40
2018-06-20T11:04:45.483Z,37.43
2018-06-20T11:07:19.324Z,36.63
2018-06-20T11:09:53.207Z,36.38
2018-06-20T11:12:27.069Z,36.13
2018-06-20T11:14:55.755Z,36.18
2018-06-20T11:17:24.431Z,37.30
2018-06-20T11:19:53.232Z,36.88
2018-06-20T11:22:21.934Z,36.77
2018-06-20T11:24:50.603Z,35.97
2018-06-20T11:27:19.274Z,34.21
2018-06-20T11:29:47.922Z,33.27
2018-06-20T11:32:16.891Z,34.25
2018-06-20T11:34:45.522Z,32.84
2018-06-20T11:37:14.257Z,31.23
2018-06-20T11:39:42.919Z,30.87
2018-06-20T11:42:11.588Z,31.83
2018-06-20T11:44:40.254Z,31.62
2018-06-20T11:48:12.573Z,30.76
2018-06-20T11:50:41.264Z,32.39
2018-06-20T11:53:11.270Z,33.03
2018-06-20T11:55:41.123Z,32.36
2018-06-20T11:58:14.967Z,33.12
2018-06-20T12:00:48.893Z,33.71
2018-06-20T12:03:22.859Z,34.43
2018-06-20T12:05:56.683Z,34.56
2018-06-20T12:08:30.442Z,33.92
2018-06-20T12:11:04.082Z,33.79
2018-06-20T12:13:37.972Z,34.15
2018-06-20T12:16:11.831Z,32.27
2018-06-20T12:18:45.739Z,32.39
2018-06-20T12:21:19.533Z,31.20
2018-06-20T12:23:53.399Z,31.54
2018-06-20T12:26:27.142Z,31.25
2018-06-20T12:29:00.813Z,30.44
2018-06-20T12:31:34.641Z,30.78
2018-06-20T12:34:08.502Z,30.81
2018-06-20T12:36:42.403Z,30.77
2018-06-20T12:39:10.129Z,30.59
2018-06-20T12:41:43.921Z,29.02
2018-06-20T12:44:17.773Z,28.67
2018-06-20T12:46:54.259Z,28.23
2018-06-20T12:49:26.943Z,30.05
2018-06-20T12:51:55.622Z,27.61
2018-06-20T12:54:24.287Z,28.26
2018-06-20T12:56:52.941Z,28.27
2018-06-20T12:59:21.661Z,28.58
2018-06-20T13:01:50.362Z,27.89
2018-06-20T13:04:19.576Z,27.97
2018-06-20T13:06:48.235Z,28.86
2018-06-20T13:09:16.920Z,29.63
2018-06-20T13:11:45.557Z,27.44
2018-06-20T13:14:14.192Z,28.61
2018-06-20T13:16:43.480Z,27.83
2018-06-20T13:19:12.109Z,27.86
2018-06-20T13:21:40.823Z,26.42
2018-06-20T13:24:09.444Z,27.13
2018-06-20T13:26:38.092Z,27.65
2018-06-20T13:29:06.838Z,27.70
2018-06-20T13:31:41.019Z,27.46
2018-06-20T13:34:15.319Z,27.51
2018-06-20T13:36:49.258Z,28.70
2018-06-20T13:39:23.143Z,27.78
2018-06-20T13:41:56.810Z,29.27
2018-06-20T13:44:27.103Z,27.75
2018-06-20T13:47:01.032Z,28.61
2018-06-20T13:49:29.735Z,28.24
2018-06-20T13:51:58.446Z,28.52
2018-06-20T13:54:27.438Z,28.45
2018-06-20T13:56:56.083Z,28.47
2018-06-20T13:59:24.991Z,30.14
2018-06-20T14:01:53.734Z,29.43
2018-06-20T14:04:22.425Z,28.78
2018-06-20T14:06:51.794Z,29.14
2018-06-20T14:09:20.453Z,30.43
2018-06-20T14:11:49.102Z,30.27
2018-06-20T14:14:17.712Z,31.44
2018-06-20T14:16:46.447Z,31.28
2018-06-20T14:19:15.139Z,31.50
2018-06-20T14:21:43.774Z,30.56
2018-06-20T14:24:12.673Z,31.06
2018-06-20T14:26:41.912Z,30.63
2018-06-20T14:29:11.227Z,31.33
2018-06-20T14:31:44.970Z,30.50
2018-06-20T14:35:22.531Z,31.03
2018-06-20T14:37:56.368Z,29.96
2018-06-20T14:41:28.705Z,31.08
2018-06-20T14:44:02.550Z,31.93
2018-06-20T14:46:35.230Z,30.71
2018-06-20T14:49:03.994Z,30.94
2018-06-20T14:51:32.743Z,31.42
2018-06-20T14:54:01.443Z,30.15
2018-06-20T14:56:30.927Z,30.71
2018-06-20T14:58:59.618Z,29.84
2018-06-20T15:01:28.306Z,30.08
2018-06-20T15:03:57.131Z,30.15
2018-06-20T15:06:25.890Z,30.16
2018-06-20T15:08:54.555Z,31.59
2018-06-20T15:11:23.162Z,31.83
2018-06-20T15:13:51.881Z,31.25
2018-06-20T15:16:25.698Z,30.24
2018-06-20T15:18:54.367Z,31.71
2018-06-20T15:21:22.998Z,31.30
2018-06-20T15:23:51.647Z,31.65
2018-06-20T15:26:25.278Z,31.38
2018-06-20T15:28:59.256Z,32.69
2018-06-20T15:31:33.135Z,31.66
2018-06-20T15:34:07.054Z,33.06
2018-06-20T15:36:40.792Z,32.50
2018-06-20T15:39:09.682Z,32.30
2018-06-20T15:41:38.394Z,32.51
2018-06-20T15:44:07.405Z,33.57
2018-06-20T15:46:36.078Z,33.30
2018-06-20T15:49:05.254Z,33.37
2018-06-20T15:51:38.116Z,33.02
2018-06-20T15:54:06.747Z,33.53
2018-06-20T15:56:35.441Z,32.10
2018-06-20T15:59:04.117Z,32.12
2018-06-20T16:01:32.835Z,31.25
2018-06-20T16:04:01.528Z,31.68
2018-06-20T16:06:30.172Z,32.47
2018-06-20T16:09:04.077Z,32.76
2018-06-20T16:11:32.716Z,33.66
2018-06-20T16:14:01.402Z,33.36
2018-06-20T16:16:30.088Z,33.98
2018-06-20T16:19:03.962Z,34.52
2018-06-20T16:21:37.714Z,33.46
2018-06-20T16:24:11.543Z,34.34
2018-06-20T16:26:45.355Z,33.60
2018-06-20T16:29:19.537Z,35.15
2018-06-20T16:31:48.337Z,34.46
2018-06-20T16:34:17.161Z,33.81
2018-06-20T16:36:45.796Z,33.66
2018-06-20T16:39:14.468Z,33.74
2018-06-20T16:41:43.131Z,34.55
2018-06-20T16:44:11.801Z,34.35
2018-06-20T16:46:40.438Z,34.04
2018-06-20T16:49:09.344Z,35.34
2018-06-20T16:51:38.071Z,35.76
2018-06-20T16:54:06.873Z,34.49
2018-06-20T16:56:35.535Z,35.45
2018-06-20T16:59:04.212Z,35.30
2018-06-20T17:01:38.054Z,35.39
2018-06-20T17:04:06.754Z,35.64
2018-06-20T17:06:35.640Z,36.57
2018-06-20T17:09:06.339Z,35.46
2018-06-20T17:11:34.994Z,36.77
2018-06-20T17:14:08.937Z,36.52
2018-06-20T17:16:42.825Z,36.79
2018-06-20T17:19:16.771Z,37.51
2018-06-20T17:21:50.632Z,37.43
2018-06-20T17:24:24.538Z,37.58
2018-06-20T17:26:53.642Z,38.06
2018-06-20T17:29:22.394Z,37.74
2018-06-20T17:31:51.968Z,38.60
2018-06-20T17:34:20.670Z,38.86
2018-06-20T17:36:49.367Z,38.31
2018-06-20T17:39:18.121Z,39.60
2018-06-20T17:41:47.706Z,40.78
2018-06-20T17:44:16.460Z,40.45
2018-06-20T17:46:45.108Z,40.94
2018-06-20T17:49:14.520Z,40.24
2018-06-20T17:51:43.290Z,40.34
2018-06-20T17:54:11.987Z,40.21
2018-06-20T17:56:40.653Z,40.63
2018-06-20T17:59:10.557Z,42.07
2018-06-20T18:01:39.270Z,42.08
2018-06-20T18:04:07.928Z,42.70
2018-06-20T18:06:42.575Z,43.22
2018-06-20T18:09:16.381Z,43.07
2018-06-20T18:11:50.201Z,43.14
2018-06-20T18:14:23.979Z,43.70
2018-06-20T18:16:58.924Z,43.86
2018-06-20T18:19:28.142Z,44.94
2018-06-20T18:21:56.892Z,44.42
2018-06-20T18:24:26.190Z,44.83
2018-06-20T18:26:55.098Z,45.43
2018-06-20T18:29:23.736Z,45.82
2018-06-20T18:31:52.471Z,46.41
2018-06-20T18:34:21.140Z,46.83
2018-06-20T18:36:49.866Z,46.62
2018-06-20T18:39:18.550Z,46.82
2018-06-20T18:41:47.188Z,47.17
2018-06-20T18:44:15.852Z,47.01
2018-06-20T18:46:44.680Z,47.73
2018-06-20T18:49:13.315Z,48.25
2018-06-20T18:51:41.979Z,46.58
2018-06-20T18:54:11.811Z,47.38
2018-06-20T18:56:40.604Z,47.19
2018-06-20T18:59:14.606Z,47.93
2018-06-20T19:02:49.099Z,47.98
2018-06-20T19:05:22.880Z,48.68
2018-06-20T19:07:56.693Z,48.55
2018-06-20T19:10:25.391Z,49.43
2018-06-20T19:12:54.070Z,49.60
2018-06-20T19:15:23.170Z,50.28
2018-06-20T19:17:52.038Z,50.33
2018-06-20T19:20:20.680Z,49.71
2018-06-20T19:22:49.406Z,50.67
2018-06-20T19:25:18.080Z,51.13
2018-06-20T19:27:46.820Z,49.58
2018-06-20T19:30:16.853Z,49.60
2018-06-20T19:32:45.542Z,49.53
2018-06-20T19:35:15.121Z,49.50
2018-06-20T19:37:43.867Z,49.56
2018-06-20T19:40:12.577Z,50.23
2018-06-20T19:42:41.319Z,50.50
2018-06-20T19:45:10.044Z,50.96
2018-06-20T19:47:38.813Z,50.84
2018-06-20T19:50:07.473Z,50.79
2018-06-20T19:52:36.577Z,51.45
2018-06-20T19:55:05.288Z,51.73
2018-06-20T19:57:34.705Z,51.47
2018-06-20T20:00:05.608Z,52.31
2018-06-20T20:02:34.734Z,52.33
2018-06-20T20:05:03.476Z,52.26
2018-06-20T20:07:32.131Z,53.67
2018-06-20T20:10:00.828Z,54.06
2018-06-20T20:12:29.457Z,54.06
